createdAt,value
2017-08-14T00:00:12.109Z,995.13
2017-08-14T00:01:11.266Z,995.09
2017-08-14T00:02:11.267Z,995.12
2017-08-14T00:03:11.269Z,995.11
2017-08-14T00:04:11.268Z,995.08
2017-08-14T00:05:11.433Z,995.15
2017-08-14T00:06:11.273Z,995.16
2017-08-14T00:07:11.275Z,995.19
2017-08-14T00:08:11.286Z,995.15
2017-08-14T00:09:11.281Z,995.13
2017-08-14T00:10:11.764Z,995.14
2017-08-14T00:11:11.284Z,995.16
2017-08-14T00:12:11.285Z,995.09
2017-08-14T00:13:11.298Z,995.08
2017-08-14T00:14:11.291Z,995.03
2017-08-14T00:15:11.461Z,995.02
2017-08-14T00:16:11.294Z,995.03
2017-08-14T00:17:11.294Z,994.99
2017-08-14T00:18:11.298Z,994.97
2017-08-14T00:19:11.299Z,995
2017-08-14T00:20:11.469Z,994.96
2017-08-14T00:21:11.304Z,994.94
2017-08-14T00:22:11.497Z,994.95
2017-08-14T00:23:11.306Z,994.94
2017-08-14T00:24:11.308Z,994.87
2017-08-14T00:25:11.496Z,994.85
2017-08-14T00:26:11.312Z,994.88
2017-08-14T00:27:11.315Z,994.88
2017-08-14T00:28:11.317Z,994.84
2017-08-14T00:29:14.885Z,994.85
2017-08-14T00:30:11.481Z,994.92
2017-08-14T00:31:11.325Z,994.92
2017-08-14T00:32:11.324Z,994.89
2017-08-14T00:33:11.327Z,994.87
2017-08-14T00:34:11.336Z,994.86
2017-08-14T00:35:11.882Z,994.86
2017-08-14T00:36:11.338Z,994.89
2017-08-14T00:37:11.340Z,994.88
2017-08-14T00:38:11.339Z,994.89
2017-08-14T00:39:11.340Z,994.9
2017-08-14T00:40:11.807Z,994.9
2017-08-14T00:41:11.343Z,994.86
2017-08-14T00:42:11.343Z,994.84
2017-08-14T00:43:11.347Z,994.83
2017-08-14T00:44:11.349Z,994.85
2017-08-14T00:45:11.836Z,994.86
2017-08-14T00:46:11.353Z,994.81
2017-08-14T00:47:11.357Z,994.85
2017-08-14T00:48:11.356Z,994.81
2017-08-14T00:49:11.358Z,994.81
2017-08-14T00:50:11.521Z,994.86
2017-08-14T00:51:11.365Z,994.79
2017-08-14T00:52:11.364Z,994.82
2017-08-14T00:53:11.367Z,994.8
2017-08-14T00:54:11.369Z,994.8
2017-08-14T00:55:11.846Z,994.76
2017-08-14T00:56:11.377Z,994.79
2017-08-14T00:57:11.373Z,994.79
2017-08-14T00:58:11.376Z,994.75
2017-08-14T00:59:11.377Z,994.78
2017-08-14T01:00:11.839Z,994.73
2017-08-14T01:01:11.382Z,994.76
2017-08-14T01:02:11.384Z,994.78
2017-08-14T01:03:11.386Z,994.76
2017-08-14T01:04:11.389Z,994.74
2017-08-14T01:05:11.924Z,994.75
2017-08-14T01:06:11.403Z,994.72
2017-08-14T01:07:11.407Z,994.75
2017-08-14T01:08:11.405Z,994.72
2017-08-14T01:09:11.408Z,994.69
2017-08-14T01:10:11.881Z,994.67
2017-08-14T01:11:11.404Z,994.68
2017-08-14T01:12:11.408Z,994.65
2017-08-14T01:13:11.406Z,994.69
2017-08-14T01:14:11.409Z,994.66
2017-08-14T01:15:11.733Z,994.67
2017-08-14T01:16:11.414Z,994.68
2017-08-14T01:17:11.416Z,994.65
2017-08-14T01:18:11.418Z,994.65
2017-08-14T01:19:11.419Z,994.65
2017-08-14T01:20:11.905Z,994.65
2017-08-14T01:21:11.421Z,994.66
2017-08-14T01:22:11.426Z,994.64
2017-08-14T01:23:11.431Z,994.63
2017-08-14T01:24:11.439Z,994.68
2017-08-14T01:25:11.940Z,994.65
2017-08-14T01:26:11.439Z,994.66
2017-08-14T01:27:11.438Z,994.65
2017-08-14T01:28:11.442Z,994.61
2017-08-14T01:29:11.440Z,994.61
2017-08-14T01:30:11.747Z,994.58
2017-08-14T01:31:11.444Z,994.6
2017-08-14T01:32:11.444Z,994.59
2017-08-14T01:33:11.447Z,994.59
2017-08-14T01:34:11.451Z,994.55
2017-08-14T01:35:11.618Z,994.56
2017-08-14T01:36:11.453Z,994.55
2017-08-14T01:37:11.454Z,994.56
2017-08-14T01:38:11.458Z,994.58
2017-08-14T01:39:11.458Z,994.56
2017-08-14T01:40:11.659Z,994.54
2017-08-14T01:41:11.463Z,994.54
2017-08-14T01:42:11.480Z,994.57
2017-08-14T01:43:11.478Z,994.53
2017-08-14T01:44:11.480Z,994.54
2017-08-14T01:45:11.784Z,994.55
2017-08-14T01:46:11.480Z,994.52
2017-08-14T01:47:11.482Z,994.59
2017-08-14T01:48:11.478Z,994.56
2017-08-14T01:49:11.482Z,994.56
2017-08-14T01:50:12.119Z,994.54
2017-08-14T01:51:11.484Z,994.53
2017-08-14T01:52:11.483Z,994.54
2017-08-14T01:53:11.488Z,994.55
2017-08-14T01:54:11.488Z,994.54
2017-08-14T01:55:11.773Z,994.54
2017-08-14T01:56:11.491Z,994.49
2017-08-14T01:57:11.494Z,994.52
2017-08-14T01:58:11.494Z,994.5
2017-08-14T01:59:11.535Z,994.53
2017-08-14T02:00:13.650Z,994.49
2017-08-14T02:01:11.499Z,994.43
2017-08-14T02:02:11.502Z,994.44
2017-08-14T02:03:11.504Z,994.43
2017-08-14T02:04:11.511Z,994.44
2017-08-14T02:05:12.011Z,994.42
2017-08-14T02:06:11.513Z,994.42
2017-08-14T02:07:11.511Z,994.44
2017-08-14T02:08:11.517Z,994.43
2017-08-14T02:09:11.516Z,994.43
2017-08-14T02:10:11.997Z,994.41
2017-08-14T02:11:11.520Z,994.43
2017-08-14T02:12:11.521Z,994.46
2017-08-14T02:13:11.524Z,994.44
2017-08-14T02:14:11.526Z,994.43
2017-08-14T02:15:11.728Z,994.4
2017-08-14T02:16:11.533Z,994.41
2017-08-14T02:17:11.531Z,994.43
2017-08-14T02:18:11.535Z,994.36
2017-08-14T02:19:11.535Z,994.37
2017-08-14T02:20:11.731Z,994.37
2017-08-14T02:21:11.539Z,994.32
2017-08-14T02:22:11.540Z,994.34
2017-08-14T02:23:11.545Z,994.34
2017-08-14T02:24:11.545Z,994.31
2017-08-14T02:25:11.754Z,994.3
2017-08-14T02:26:11.549Z,994.3
2017-08-14T02:27:11.550Z,994.3
2017-08-14T02:28:11.552Z,994.26
2017-08-14T02:29:11.554Z,994.28
2017-08-14T02:30:12.037Z,994.29
2017-08-14T02:31:11.561Z,994.28
2017-08-14T02:32:11.560Z,994.29
2017-08-14T02:33:11.562Z,994.27
2017-08-14T02:34:11.563Z,994.3
2017-08-14T02:35:11.759Z,994.24
2017-08-14T02:36:11.568Z,994.24
2017-08-14T02:37:11.569Z,994.23
2017-08-14T02:38:11.571Z,994.23
2017-08-14T02:39:11.584Z,994.22
2017-08-14T02:40:11.793Z,994.21
2017-08-14T02:41:11.578Z,994.22
2017-08-14T02:42:11.584Z,994.21
2017-08-14T02:43:11.581Z,994.21
2017-08-14T02:44:11.583Z,994.24
2017-08-14T02:45:12.082Z,994.19
2017-08-14T02:46:11.587Z,994.18
2017-08-14T02:47:11.590Z,994.18
2017-08-14T02:48:11.600Z,994.19
2017-08-14T02:49:11.594Z,994.17
2017-08-14T02:50:11.761Z,994.19
2017-08-14T02:51:11.596Z,994.21
2017-08-14T02:52:11.596Z,994.2
2017-08-14T02:53:11.599Z,994.18
2017-08-14T02:54:11.601Z,994.19
2017-08-14T02:55:11.776Z,994.2
2017-08-14T02:56:11.604Z,994.21
2017-08-14T02:57:11.606Z,994.22
2017-08-14T02:58:11.608Z,994.2
2017-08-14T02:59:11.610Z,994.21
2017-08-14T03:00:12.117Z,994.24
2017-08-14T03:01:11.613Z,994.23
2017-08-14T03:02:11.616Z,994.25
2017-08-14T03:03:11.616Z,994.24
2017-08-14T03:04:11.618Z,994.26
2017-08-14T03:05:12.112Z,994.25
2017-08-14T03:06:11.626Z,994.22
2017-08-14T03:07:11.624Z,994.23
2017-08-14T03:08:11.626Z,994.23
2017-08-14T03:09:11.627Z,994.24
2017-08-14T03:10:12.144Z,994.23
2017-08-14T03:11:11.630Z,994.21
2017-08-14T03:12:11.634Z,994.26
2017-08-14T03:13:11.635Z,994.23
2017-08-14T03:14:11.636Z,994.25
2017-08-14T03:15:11.827Z,994.27
2017-08-14T03:16:13.292Z,994.25
2017-08-14T03:17:11.642Z,994.25
2017-08-14T03:18:11.643Z,994.27
2017-08-14T03:19:11.646Z,994.27
2017-08-14T03:20:11.838Z,994.24
2017-08-14T03:21:11.649Z,994.25
2017-08-14T03:22:11.650Z,994.26
2017-08-14T03:23:11.652Z,994.25
2017-08-14T03:24:11.654Z,994.21
2017-08-14T03:25:12.213Z,994.24
2017-08-14T03:26:11.658Z,994.22
2017-08-14T03:27:11.661Z,994.21
2017-08-14T03:28:11.663Z,994.24
2017-08-14T03:29:11.664Z,994.24
2017-08-14T03:30:11.864Z,994.25
2017-08-14T03:31:11.667Z,994.24
2017-08-14T03:32:11.671Z,994.2
2017-08-14T03:33:11.668Z,994.21
2017-08-14T03:34:11.673Z,994.23
2017-08-14T03:35:11.878Z,994.21
2017-08-14T03:36:11.677Z,994.21
2017-08-14T03:37:11.679Z,994.23
2017-08-14T03:38:11.683Z,994.19
2017-08-14T03:39:11.683Z,994.2
2017-08-14T03:40:11.999Z,994.18
2017-08-14T03:41:11.686Z,994.19
2017-08-14T03:42:11.711Z,994.19
2017-08-14T03:43:11.689Z,994.16
2017-08-14T03:44:11.692Z,994.2
2017-08-14T03:45:11.898Z,994.21
2017-08-14T03:46:11.696Z,994.18
2017-08-14T03:47:11.697Z,994.17
2017-08-14T03:48:11.706Z,994.21
2017-08-14T03:49:11.701Z,994.22
2017-08-14T03:50:12.127Z,994.17
2017-08-14T03:51:11.706Z,994.16
2017-08-14T03:52:11.710Z,994.16
2017-08-14T03:53:11.709Z,994.13
2017-08-14T03:54:11.710Z,994.17
2017-08-14T03:55:12.082Z,994.14
2017-08-14T03:56:11.738Z,994.17
2017-08-14T03:57:11.716Z,994.16
2017-08-14T03:58:11.716Z,994.16
2017-08-14T03:59:11.719Z,994.18
2017-08-14T04:00:12.270Z,994.17
2017-08-14T04:01:11.722Z,994.15
2017-08-14T04:02:11.723Z,994.16
2017-08-14T04:03:11.726Z,994.17
2017-08-14T04:04:11.728Z,994.14
2017-08-14T04:05:11.914Z,994.14
2017-08-14T04:06:11.730Z,994.16
2017-08-14T04:07:11.733Z,994.11
2017-08-14T04:08:11.758Z,994.16
2017-08-14T04:09:11.737Z,994.15
2017-08-14T04:10:11.905Z,994.17
2017-08-14T04:11:11.740Z,994.17
2017-08-14T04:12:11.740Z,994.15
2017-08-14T04:13:11.742Z,994.15
2017-08-14T04:14:11.745Z,994.18
2017-08-14T04:15:11.950Z,994.18
2017-08-14T04:16:11.747Z,994.15
2017-08-14T04:17:11.749Z,994.16
2017-08-14T04:18:11.749Z,994.15
2017-08-14T04:19:11.756Z,994.18
2017-08-14T04:20:12.064Z,994.21
2017-08-14T04:21:11.755Z,994.22
2017-08-14T04:22:11.756Z,994.21
2017-08-14T04:23:11.764Z,994.21
2017-08-14T04:24:11.759Z,994.23
2017-08-14T04:25:11.967Z,994.23
2017-08-14T04:26:11.762Z,994.19
2017-08-14T04:27:11.772Z,994.18
2017-08-14T04:28:11.766Z,994.22
2017-08-14T04:29:11.767Z,994.22
2017-08-14T04:30:11.977Z,994.21
2017-08-14T04:31:11.772Z,994.22
2017-08-14T04:32:11.773Z,994.22
2017-08-14T04:33:11.774Z,994.19
2017-08-14T04:34:11.795Z,994.18
2017-08-14T04:35:12.054Z,994.2
2017-08-14T04:36:11.782Z,994.22
2017-08-14T04:37:11.786Z,994.22
2017-08-14T04:38:11.785Z,994.24
2017-08-14T04:39:11.784Z,994.25
2017-08-14T04:40:12.051Z,994.25
2017-08-14T04:41:11.784Z,994.25
2017-08-14T04:42:11.792Z,994.29
2017-08-14T04:43:11.788Z,994.26
2017-08-14T04:44:11.789Z,994.29
2017-08-14T04:45:12.356Z,994.33
2017-08-14T04:46:11.792Z,994.36
2017-08-14T04:47:11.995Z,994.35
2017-08-14T04:48:11.797Z,994.34
2017-08-14T04:49:11.798Z,994.33
2017-08-14T04:50:12.318Z,994.33
2017-08-14T04:51:11.802Z,994.38
2017-08-14T04:52:11.803Z,994.36
2017-08-14T04:53:11.807Z,994.43
2017-08-14T04:54:11.808Z,994.43
2017-08-14T04:55:12.106Z,994.39
2017-08-14T04:56:11.814Z,994.39
2017-08-14T04:57:11.815Z,994.4
2017-08-14T04:58:11.820Z,994.38
2017-08-14T04:59:11.821Z,994.41
2017-08-14T05:00:12.034Z,994.39
2017-08-14T05:01:11.827Z,994.41
2017-08-14T05:02:12.048Z,994.45
2017-08-14T05:03:11.835Z,994.46
2017-08-14T05:04:11.838Z,994.44
2017-08-14T05:05:12.391Z,994.45
2017-08-14T05:06:11.844Z,994.46
2017-08-14T05:07:11.847Z,994.42
2017-08-14T05:08:11.855Z,994.39
2017-08-14T05:09:11.855Z,994.39
2017-08-14T05:10:12.048Z,994.38
2017-08-14T05:11:11.866Z,994.4
2017-08-14T05:12:11.868Z,994.36
2017-08-14T05:13:11.874Z,994.38
2017-08-14T05:14:11.879Z,994.31
2017-08-14T05:15:12.131Z,994.31
2017-08-14T05:16:11.888Z,994.38
2017-08-14T05:17:11.893Z,994.38
2017-08-14T05:18:11.897Z,994.36
2017-08-14T05:19:11.904Z,994.35
2017-08-14T05:20:12.133Z,994.39
2017-08-14T05:21:11.914Z,994.37
2017-08-14T05:22:11.918Z,994.36
2017-08-14T05:23:11.925Z,994.4
2017-08-14T05:24:11.931Z,994.36
2017-08-14T05:25:12.189Z,994.39
2017-08-14T05:26:11.942Z,994.34
2017-08-14T05:27:11.947Z,994.35
2017-08-14T05:28:11.952Z,994.34
2017-08-14T05:29:11.968Z,994.34
2017-08-14T05:30:12.218Z,994.32
2017-08-14T05:31:11.971Z,994.33
2017-08-14T05:32:11.974Z,994.31
2017-08-14T05:33:11.980Z,994.32
2017-08-14T05:34:11.987Z,994.31
2017-08-14T05:35:12.236Z,994.34
2017-08-14T05:36:11.996Z,994.31
2017-08-14T05:37:12.003Z,994.39
2017-08-14T05:38:12.008Z,994.32
2017-08-14T05:39:12.013Z,994.34
2017-08-14T05:40:12.222Z,994.31
2017-08-14T05:41:12.028Z,994.28
2017-08-14T05:42:12.030Z,994.25
2017-08-14T05:43:12.046Z,994.23
2017-08-14T05:44:12.056Z,994.26
2017-08-14T05:45:12.281Z,994.25
2017-08-14T05:46:12.055Z,994.26
2017-08-14T05:47:12.064Z,994.28
2017-08-14T05:48:12.059Z,994.48
2017-08-14T05:49:12.065Z,994.3
2017-08-14T05:50:12.352Z,994.32
2017-08-14T05:51:12.073Z,994.3
2017-08-14T05:52:12.085Z,994.32
2017-08-14T05:53:12.091Z,994.34
2017-08-14T05:54:12.088Z,994.28
2017-08-14T05:55:12.280Z,994.3
2017-08-14T05:56:12.096Z,994.32
2017-08-14T05:57:12.116Z,994.3
2017-08-14T05:58:12.124Z,994.3
2017-08-14T05:59:12.108Z,994.45
2017-08-14T06:00:12.380Z,994.32
2017-08-14T06:01:12.121Z,994.31
2017-08-14T06:02:12.122Z,994.36
2017-08-14T06:03:12.129Z,994.37
2017-08-14T06:04:12.130Z,994.36
2017-08-14T06:05:12.385Z,994.37
2017-08-14T06:06:12.137Z,994.37
2017-08-14T06:07:12.150Z,994.36
2017-08-14T06:08:12.148Z,994.39
2017-08-14T06:09:12.149Z,994.4
2017-08-14T06:10:12.452Z,994.25
2017-08-14T06:11:12.166Z,994.26
2017-08-14T06:12:12.192Z,994.28
2017-08-14T06:13:12.168Z,994.26
2017-08-14T06:14:12.177Z,994.28
2017-08-14T06:15:12.448Z,994.3
2017-08-14T06:16:12.183Z,994.31
2017-08-14T06:17:12.188Z,994.33
2017-08-14T06:18:12.191Z,994.35
2017-08-14T06:19:12.197Z,994.38
2017-08-14T06:20:12.789Z,994.39
2017-08-14T06:21:12.212Z,994.4
2017-08-14T06:22:12.208Z,994.33
2017-08-14T06:23:12.214Z,994.3
2017-08-14T06:24:12.218Z,994.36
2017-08-14T06:25:12.745Z,994.36
2017-08-14T06:26:12.226Z,994.32
2017-08-14T06:27:12.232Z,994.38
2017-08-14T06:28:12.235Z,994.36
2017-08-14T06:29:12.243Z,994.33
2017-08-14T06:30:12.813Z,994.39
2017-08-14T06:31:12.252Z,994.44
2017-08-14T06:32:12.266Z,994.44
2017-08-14T06:33:12.522Z,994.45
2017-08-14T06:34:12.268Z,994.36
2017-08-14T06:35:12.549Z,994.33
2017-08-14T06:36:12.279Z,994.34
2017-08-14T06:37:12.284Z,994.36
2017-08-14T06:38:12.291Z,994.37
2017-08-14T06:39:12.297Z,994.36
2017-08-14T06:40:12.564Z,994.36
2017-08-14T06:41:12.315Z,994.34
2017-08-14T06:42:12.315Z,994.34
2017-08-14T06:43:12.320Z,994.34
2017-08-14T06:44:12.326Z,994.29
2017-08-14T06:45:12.577Z,994.28
2017-08-14T06:46:12.338Z,994.29
2017-08-14T06:47:12.345Z,994.3
2017-08-14T06:48:16.369Z,994.31
2017-08-14T06:49:12.359Z,994.24
2017-08-14T06:50:12.527Z,994.26
2017-08-14T06:51:12.375Z,994.28
2017-08-14T06:52:12.379Z,994.31
2017-08-14T06:53:12.387Z,994.27
2017-08-14T06:54:12.394Z,994.26
2017-08-14T06:55:12.671Z,994.31
2017-08-14T06:56:12.407Z,994.33
2017-08-14T06:57:12.414Z,994.35
2017-08-14T06:58:12.424Z,994.2
2017-08-14T06:59:12.429Z,994.31
2017-08-14T07:00:12.680Z,994.31
2017-08-14T07:01:12.442Z,994.37
2017-08-14T07:02:12.450Z,994.3
2017-08-14T07:03:12.457Z,994.35
2017-08-14T07:04:12.468Z,994.28
2017-08-14T07:05:12.534Z,994.23
2017-08-14T07:06:12.479Z,994.27
2017-08-14T07:07:12.486Z,994.3
2017-08-14T07:08:12.495Z,994.27
2017-08-14T07:09:12.499Z,994.31
2017-08-14T07:10:12.505Z,994.33
2017-08-14T07:11:12.515Z,994.34
2017-08-14T07:12:12.518Z,994.29
2017-08-14T07:13:12.526Z,994.32
2017-08-14T07:14:12.540Z,994.28
2017-08-14T07:15:12.760Z,994.3
2017-08-14T07:16:12.547Z,994.27
2017-08-14T07:17:12.551Z,994.29
2017-08-14T07:18:12.559Z,994.26
2017-08-14T07:19:12.563Z,994.25
2017-08-14T07:20:12.573Z,994.26
2017-08-14T07:21:12.578Z,994.24
2017-08-14T07:22:12.587Z,994.29
2017-08-14T07:23:12.602Z,994.32
2017-08-14T07:24:12.602Z,994.31
2017-08-14T07:25:12.881Z,994.26
2017-08-14T07:26:12.611Z,994.24
2017-08-14T07:27:12.616Z,994.22
2017-08-14T07:28:12.625Z,994.29
2017-08-14T07:29:12.649Z,994.23
2017-08-14T07:30:12.710Z,994.21
2017-08-14T07:31:12.649Z,994.17
2017-08-14T07:32:12.653Z,994.26
2017-08-14T07:33:12.661Z,994.25
2017-08-14T07:34:12.866Z,994.29
2017-08-14T07:35:12.675Z,994.26
2017-08-14T07:36:12.680Z,994.26
2017-08-14T07:37:12.686Z,994.25
2017-08-14T07:38:12.693Z,994.24
2017-08-14T07:39:12.703Z,994.26
2017-08-14T07:40:12.812Z,994.22
2017-08-14T07:41:12.714Z,994.26
2017-08-14T07:42:12.719Z,994.18
2017-08-14T07:43:12.740Z,994.17
2017-08-14T07:44:12.742Z,994.19
2017-08-14T07:45:12.745Z,994.18
2017-08-14T07:46:12.746Z,994.16
2017-08-14T07:47:12.759Z,994.17
2017-08-14T07:48:12.763Z,994.18
2017-08-14T07:49:12.770Z,994.16
2017-08-14T07:50:12.777Z,994.15
2017-08-14T07:51:12.789Z,994.16
2017-08-14T07:52:12.788Z,994.18
2017-08-14T07:53:12.806Z,994.13
2017-08-14T07:54:12.803Z,994.15
2017-08-14T07:55:12.809Z,994.12
2017-08-14T07:56:12.813Z,994.14
2017-08-14T07:57:12.822Z,994.15
2017-08-14T07:58:12.821Z,994.09
2017-08-14T07:59:12.839Z,994.08
2017-08-14T08:00:13.222Z,994.08
2017-08-14T08:01:12.849Z,994.09
2017-08-14T08:02:12.850Z,994.05
2017-08-14T08:03:12.857Z,994.11
2017-08-14T08:04:17.869Z,994.08
2017-08-14T08:05:12.873Z,994.12
2017-08-14T08:06:12.878Z,994.16
2017-08-14T08:07:12.885Z,994.14
2017-08-14T08:08:12.894Z,994.15
2017-08-14T08:09:12.899Z,994.17
2017-08-14T08:10:12.907Z,994.16
2017-08-14T08:11:12.914Z,994.13
2017-08-14T08:12:12.921Z,994.14
2017-08-14T08:13:12.938Z,994.13
2017-08-14T08:14:12.938Z,994.1
2017-08-14T08:15:12.972Z,994.09
2017-08-14T08:16:12.954Z,994.06
2017-08-14T08:17:12.962Z,994.11
2017-08-14T08:18:12.974Z,994.11
2017-08-14T08:19:12.978Z,994.05
2017-08-14T08:20:12.986Z,994.04
2017-08-14T08:21:12.994Z,994.03
2017-08-14T08:22:13.007Z,994.05
2017-08-14T08:23:13.011Z,994.01
2017-08-14T08:24:13.022Z,994.03
2017-08-14T08:25:13.029Z,994.02
2017-08-14T08:26:13.037Z,994.02
2017-08-14T08:27:13.047Z,994.02
2017-08-14T08:28:13.061Z,994.04
2017-08-14T08:29:13.070Z,993.99
2017-08-14T08:30:13.075Z,993.99
2017-08-14T08:31:13.084Z,994.01
2017-08-14T08:32:13.093Z,994.02
2017-08-14T08:33:13.104Z,993.96
2017-08-14T08:34:13.112Z,993.96
2017-08-14T08:35:13.123Z,993.86
2017-08-14T08:36:13.129Z,993.91
2017-08-14T08:37:13.139Z,993.93
2017-08-14T08:38:13.149Z,993.93
2017-08-14T08:39:13.155Z,993.9
2017-08-14T08:40:13.164Z,993.93
2017-08-14T08:41:13.172Z,993.93
2017-08-14T08:42:13.182Z,993.95
2017-08-14T08:43:13.189Z,993.91
2017-08-14T08:44:13.199Z,993.9
2017-08-14T08:45:13.206Z,993.95
2017-08-14T08:46:13.216Z,993.95
2017-08-14T08:47:13.225Z,993.95
2017-08-14T08:48:13.236Z,993.89
2017-08-14T08:49:13.242Z,993.94
2017-08-14T08:50:13.248Z,993.97
2017-08-14T08:51:13.258Z,993.91
2017-08-14T08:52:13.278Z,993.95
2017-08-14T08:53:13.280Z,993.96
2017-08-14T08:54:13.284Z,993.96
2017-08-14T08:55:13.292Z,993.91
2017-08-14T08:56:13.301Z,993.92
2017-08-14T08:57:13.310Z,993.97
2017-08-14T08:58:13.316Z,993.94
2017-08-14T08:59:13.326Z,994.01
2017-08-14T09:00:13.340Z,994
2017-08-14T09:01:13.341Z,993.98
2017-08-14T09:02:13.347Z,993.96
2017-08-14T09:03:13.355Z,993.92
2017-08-14T09:04:13.362Z,993.93
2017-08-14T09:05:13.397Z,993.93
2017-08-14T09:06:13.374Z,993.92
2017-08-14T09:07:13.383Z,993.93
2017-08-14T09:08:13.389Z,993.94
2017-08-14T09:09:13.397Z,993.92
2017-08-14T09:10:13.403Z,993.91
2017-08-14T09:11:13.411Z,993.92
2017-08-14T09:12:13.417Z,993.92
2017-08-14T09:13:13.422Z,993.89
2017-08-14T09:14:13.430Z,993.95
2017-08-14T09:15:13.438Z,993.92
2017-08-14T09:16:13.443Z,993.95
2017-08-14T09:17:13.450Z,993.9
2017-08-14T09:18:13.467Z,993.89
2017-08-14T09:19:13.463Z,993.91
2017-08-14T09:20:13.469Z,993.86
2017-08-14T09:21:13.476Z,993.94
2017-08-14T09:22:13.487Z,993.92
2017-08-14T09:23:13.487Z,993.93
2017-08-14T09:24:13.494Z,993.9
2017-08-14T09:25:13.503Z,993.97
2017-08-14T09:26:13.508Z,993.91
2017-08-14T09:27:13.512Z,993.93
2017-08-14T09:28:13.516Z,993.89
2017-08-14T09:29:13.525Z,993.89
2017-08-14T09:30:14.033Z,993.93
2017-08-14T09:31:13.537Z,993.87
2017-08-14T09:32:13.543Z,993.9
2017-08-14T09:33:13.549Z,993.94
2017-08-14T09:34:13.555Z,993.86
2017-08-14T09:35:13.991Z,993.88
2017-08-14T09:36:13.567Z,993.95
2017-08-14T09:37:13.574Z,993.93
2017-08-14T09:38:13.587Z,993.83
2017-08-14T09:39:13.592Z,993.83
2017-08-14T09:40:14.106Z,993.89
2017-08-14T09:41:13.599Z,993.83
2017-08-14T09:42:13.603Z,993.88
2017-08-14T09:43:13.608Z,993.83
2017-08-14T09:44:13.620Z,993.92
2017-08-14T09:45:14.162Z,993.85
2017-08-14T09:46:13.630Z,993.79
2017-08-14T09:47:13.641Z,993.84
2017-08-14T09:48:13.643Z,993.86
2017-08-14T09:49:13.662Z,993.86
2017-08-14T09:50:13.974Z,993.79
2017-08-14T09:51:13.657Z,993.81
2017-08-14T09:52:13.669Z,993.83
2017-08-14T09:53:13.674Z,993.84
2017-08-14T09:54:13.674Z,993.83
2017-08-14T09:55:13.984Z,993.89
2017-08-14T09:56:13.701Z,993.86
2017-08-14T09:57:13.704Z,993.79
2017-08-14T09:58:13.703Z,993.81
2017-08-14T09:59:13.707Z,993.82
2017-08-14T10:00:14.189Z,993.74
2017-08-14T10:01:13.721Z,993.76
2017-08-14T10:02:13.725Z,993.76
2017-08-14T10:03:13.731Z,993.73
2017-08-14T10:04:13.741Z,993.76
2017-08-14T10:05:15.116Z,993.69
2017-08-14T10:06:13.750Z,993.69
2017-08-14T10:07:13.757Z,993.72
2017-08-14T10:08:13.766Z,993.67
2017-08-14T10:09:13.773Z,993.6
2017-08-14T10:10:13.962Z,993.62
2017-08-14T10:11:13.783Z,993.64
2017-08-14T10:12:13.789Z,993.69
2017-08-14T10:13:13.798Z,993.63
2017-08-14T10:14:13.802Z,993.62
2017-08-14T10:15:14.300Z,993.66
2017-08-14T10:16:13.814Z,993.66
2017-08-14T10:17:13.823Z,993.65
2017-08-14T10:18:13.830Z,993.64
2017-08-14T10:19:13.833Z,993.66
2017-08-14T10:20:14.128Z,993.63
2017-08-14T10:21:13.846Z,993.65
2017-08-14T10:22:13.851Z,993.62
2017-08-14T10:23:13.857Z,993.6
2017-08-14T10:24:13.864Z,993.64
2017-08-14T10:25:14.285Z,993.56
2017-08-14T10:26:13.880Z,993.64
2017-08-14T10:27:13.898Z,993.64
2017-08-14T10:28:13.895Z,993.68
2017-08-14T10:29:13.898Z,993.68
2017-08-14T10:30:14.414Z,993.63
2017-08-14T10:31:13.903Z,993.59
2017-08-14T10:32:13.912Z,993.62
2017-08-14T10:33:13.917Z,993.59
2017-08-14T10:34:13.923Z,993.6
2017-08-14T10:35:14.257Z,993.58
2017-08-14T10:36:13.934Z,993.58
2017-08-14T10:37:13.943Z,993.58
2017-08-14T10:38:13.947Z,993.63
2017-08-14T10:39:13.953Z,993.65
2017-08-14T10:40:14.472Z,993.6
2017-08-14T10:41:13.964Z,993.65
2017-08-14T10:42:13.971Z,993.62
2017-08-14T10:43:13.976Z,993.55
2017-08-14T10:44:13.983Z,993.55
2017-08-14T10:45:14.423Z,993.53
2017-08-14T10:46:13.995Z,993.5
2017-08-14T10:47:14.001Z,993.57
2017-08-14T10:48:14.005Z,993.52
2017-08-14T10:49:14.014Z,993.51
2017-08-14T10:50:14.471Z,993.5
2017-08-14T10:51:14.024Z,993.5
2017-08-14T10:52:14.031Z,993.5
2017-08-14T10:53:14.036Z,993.53
2017-08-14T10:54:14.049Z,993.62
2017-08-14T10:55:14.593Z,993.57
2017-08-14T10:56:14.055Z,993.51
2017-08-14T10:57:14.061Z,993.56
2017-08-14T10:58:14.066Z,993.57
2017-08-14T10:59:14.070Z,993.56
2017-08-14T11:00:14.336Z,993.48
2017-08-14T11:01:14.085Z,993.54
2017-08-14T11:02:14.088Z,993.49
2017-08-14T11:03:14.097Z,993.44
2017-08-14T11:04:14.117Z,993.38
2017-08-14T11:05:14.842Z,993.4
2017-08-14T11:06:14.159Z,993.41
2017-08-14T11:07:14.162Z,993.42
2017-08-14T11:08:14.127Z,993.36
2017-08-14T11:09:14.132Z,993.33
2017-08-14T11:10:14.511Z,993.3
2017-08-14T11:11:14.145Z,993.3
2017-08-14T11:12:14.152Z,993.33
2017-08-14T11:13:14.160Z,993.33
2017-08-14T11:14:14.164Z,993.35
2017-08-14T11:15:14.559Z,993.37
2017-08-14T11:16:14.175Z,993.36
2017-08-14T11:17:14.184Z,993.32
2017-08-14T11:18:14.187Z,993.36
2017-08-14T11:19:14.193Z,993.38
2017-08-14T11:20:14.457Z,993.36
2017-08-14T11:21:14.205Z,993.35
2017-08-14T11:22:14.211Z,993.34
2017-08-14T11:23:14.217Z,993.38
2017-08-14T11:24:14.222Z,993.33
2017-08-14T11:25:14.532Z,993.32
2017-08-14T11:26:14.235Z,993.32
2017-08-14T11:27:14.242Z,993.29
2017-08-14T11:28:14.246Z,993.25
2017-08-14T11:29:14.258Z,993.26
2017-08-14T11:30:14.585Z,993.26
2017-08-14T11:31:14.268Z,993.2
2017-08-14T11:32:14.274Z,993.22
2017-08-14T11:33:14.277Z,993.23
2017-08-14T11:34:14.285Z,993.12
2017-08-14T11:35:14.675Z,993.12
2017-08-14T11:36:14.295Z,993.14
2017-08-14T11:37:14.301Z,993.1
2017-08-14T11:38:14.319Z,993.08
2017-08-14T11:39:14.323Z,993.06
2017-08-14T11:40:14.898Z,993.08
2017-08-14T11:41:14.327Z,993.04
2017-08-14T11:42:14.344Z,993.09
2017-08-14T11:43:14.340Z,993.04
2017-08-14T11:44:14.346Z,993.04
2017-08-14T11:45:14.714Z,993.09
2017-08-14T11:46:14.357Z,993.08
2017-08-14T11:47:14.365Z,993.04
2017-08-14T11:48:14.370Z,993.04
2017-08-14T11:49:14.375Z,993.06
2017-08-14T11:50:14.625Z,993.09
2017-08-14T11:51:14.388Z,993.14
2017-08-14T11:52:14.394Z,993.09
2017-08-14T11:53:14.399Z,993.11
2017-08-14T11:54:14.406Z,993.12
2017-08-14T11:55:14.936Z,993.07
2017-08-14T11:56:14.419Z,993.08
2017-08-14T11:57:14.423Z,993.13
2017-08-14T11:58:14.430Z,993.14
2017-08-14T11:59:14.444Z,993.17
2017-08-14T12:00:14.745Z,993.11
2017-08-14T12:01:14.446Z,993.13
2017-08-14T12:02:14.453Z,993.08
2017-08-14T12:03:14.460Z,993.09
2017-08-14T12:04:14.465Z,993.05
2017-08-14T12:05:15.123Z,993.04
2017-08-14T12:06:14.476Z,993.04
2017-08-14T12:07:14.484Z,993.05
2017-08-14T12:08:14.489Z,993.03
2017-08-14T12:09:14.496Z,993.03
2017-08-14T12:10:14.757Z,992.98
2017-08-14T12:11:14.509Z,993.03
2017-08-14T12:12:14.515Z,993.1
2017-08-14T12:13:14.519Z,993.06
2017-08-14T12:14:14.528Z,993.02
2017-08-14T12:15:14.694Z,993
2017-08-14T12:16:14.537Z,992.98
2017-08-14T12:17:14.566Z,992.97
2017-08-14T12:18:14.549Z,992.99
2017-08-14T12:19:14.555Z,992.94
2017-08-14T12:20:14.937Z,992.89
2017-08-14T12:21:14.568Z,992.87
2017-08-14T12:22:14.574Z,992.87
2017-08-14T12:23:14.580Z,992.9
2017-08-14T12:24:14.586Z,992.91
2017-08-14T12:25:14.838Z,992.82
2017-08-14T12:26:14.603Z,992.82
2017-08-14T12:27:14.603Z,992.76
2017-08-14T12:28:14.620Z,992.8
2017-08-14T12:29:14.617Z,992.8
2017-08-14T12:30:14.929Z,992.85